Time;durP1;ratioP1;P1;durP2;ratioP2;P2;SDS_P1;SDS_P2;PMS_P1;PMS_P2;Temp;Humidity;BMP_temperature;BMP_pressure;BME280_temperature;BME280_humidity;BME280_pressure;Samples;Min_cycle;Max_cycle;Signal;HPM_P1;HPM_P2
2024/04/25 00:00:37;;;;;;;4.68;2.65;;;;;;;11.27;50.18;99568.25;5364270;26;20004;-68
2024/04/25 00:03:03;;;;;;;5.13;3.00;;;;;;;11.29;50.19;99576.91;5359454;26;20047;-69
2024/04/25 00:05:29;;;;;;;5.38;2.90;;;;;;;11.12;50.60;99538.13;5332433;26;20012;-69
2024/04/25 00:07:55;;;;;;;7.22;3.10;;;;;;;11.22;50.71;99553.59;5308678;26;20044;-71
2024/04/25 00:10:21;;;;;;;4.43;2.90;;;;;;;11.19;50.55;99544.09;5361899;26;20521;-69
2024/04/25 00:12:47;;;;;;;3.25;2.88;;;;;;;11.10;50.88;99529.47;5360410;26;20013;-71
2024/04/25 00:15:13;;;;;;;6.28;2.97;;;;;;;11.25;51.14;99566.56;5360691;26;20562;-69
2024/04/25 00:17:39;;;;;;;3.60;3.03;;;;;;;11.23;51.06;99560.53;5331795;26;20016;-70
2024/04/25 00:20:06;;;;;;;7.22;3.45;;;;;;;11.18;51.30;99542.38;5336364;26;20082;-70
2024/04/25 00:22:32;;;;;;;5.72;3.50;;;;;;;11.05;51.44;99531.28;5311436;26;20012;-70
2024/04/25 00:24:58;;;;;;;3.65;3.20;;;;;;;11.07;51.57;99532.13;5359806;26;20020;-71
2024/04/25 00:27:25;;;;;;;4.32;3.00;;;;;;;11.16;51.35;99536.31;5361659;26;20004;-71
2024/04/25 00:29:51;;;;;;;3.78;3.25;;;;;;;11.07;52.14;99520.81;5335880;26;20012;-70
2024/04/25 00:32:17;;;;;;;5.45;3.72;;;;;;;11.04;51.70;99505.25;5311899;26;20015;-70
2024/04/25 00:34:43;;;;;;;4.68;3.20;;;;;;;11.20;51.92;99539.72;5363425;26;20678;-70
2024/04/25 00:37:09;;;;;;;8.05;3.40;;;;;;;11.19;52.08;99507.63;5307111;26;20011;-71
2024/04/25 00:39:35;;;;;;;5.32;3.20;;;;;;;11.09;51.95;99500.84;5310830;26;20009;-70
2024/04/25 00:42:01;;;;;;;6.38;3.05;;;;;;;10.90;52.33;99458.63;5363025;26;20012;-70
2024/04/25 00:44:26;;;;;;;6.00;2.90;;;;;;;11.07;52.33;99500.88;5332688;26;20004;-70
2024/04/25 00:46:54;;;;;;;3.38;2.65;;;;;;;11.06;52.14;99503.47;5357601;26;20016;-69
2024/04/25 00:49:21;;;;;;;5.32;3.10;;;;;;;10.97;52.35;99470.66;5334148;26;20015;-70
2024/04/25 00:51:49;;;;;;;4.22;2.63;;;;;;;11.03;52.83;99474.91;5358173;26;20020;-69
2024/04/25 00:54:15;;;;;;;5.20;3.10;;;;;;;11.08;52.37;99476.56;5363732;26;20012;-69
2024/04/25 00:56:43;;;;;;;6.30;3.42;;;;;;;10.83;52.44;99430.09;5310948;26;20004;-68
2024/04/25 00:59:11;;;;;;;4.43;2.90;;;;;;;11.05;52.58;99442.75;5364224;26;20588;-69
2024/04/25 01:01:41;;;;;;;4.47;3.00;;;;;;;11.04;52.32;99454.06;5311550;26;20055;-70
2024/04/25 01:04:07;;;;;;;4.35;2.85;;;;;;;11.01;52.41;99456.69;5306568;26;20001;-71
2024/04/25 01:06:37;;;;;;;3.90;2.85;;;;;;;10.93;52.56;99442.94;5368793;26;20068;-71
2024/04/25 01:09:03;;;;;;;3.70;3.00;;;;;;;10.92;52.74;99433.44;5360217;26;20013;-71
2024/04/25 01:11:32;;;;;;;5.95;3.28;;;;;;;11.02;52.99;99431.53;5330984;26;20040;-70
2024/04/25 01:14:00;;;;;;;3.72;2.78;;;;;;;10.97;52.59;99414.25;5311378;26;20316;-71
2024/04/25 01:16:26;;;;;;;3.97;2.80;;;;;;;11.03;52.91;99428.91;5363086;26;20051;-70
2024/04/25 01:18:52;;;;;;;7.00;3.47;;;;;;;10.99;52.88;99419.41;5359286;26;20005;-70
2024/04/25 01:21:19;;;;;;;5.13;3.42;;;;;;;10.97;53.02;99410.75;5331996;26;20000;-71
2024/04/25 01:23:50;;;;;;;3.90;3.03;;;;;;;10.94;52.95;99405.59;5328438;26;20000;-71
2024/04/25 01:26:17;;;;;;;6.43;3.45;;;;;;;10.87;53.04;99391.00;5364286;26;20001;-72
2024/04/25 01:28:44;;;;;;;5.65;2.95;;;;;;;10.90;53.22;99388.34;5310529;26;20565;-70
2024/04/25 01:31:12;;;;;;;4.95;3.25;;;;;;;10.83;53.31;99375.44;5312122;26;20016;-71
2024/04/25 01:33:40;;;;;;;8.73;3.13;;;;;;;10.91;53.49;99387.47;5297129;26;20073;-72
2024/04/25 01:36:06;;;;;;;4.00;3.10;;;;;;;10.76;53.68;99359.94;5311213;26;20367;-70
2024/04/25 01:38:32;;;;;;;3.78;2.90;;;;;;;10.65;53.42;99360.13;5332708;26;20015;-71
2024/04/25 01:40:58;;;;;;;5.57;3.08;;;;;;;10.71;53.64;99360.00;5307794;26;20004;-70
2024/04/25 01:43:24;;;;;;;3.35;3.00;;;;;;;10.85;53.19;99383.19;5360331;26;20012;-70
2024/04/25 01:45:50;;;;;;;4.82;3.10;;;;;;;10.87;53.85;99381.44;5311342;26;20409;-72
2024/04/25 01:48:16;;;;;;;5.07;3.20;;;;;;;10.94;53.34;99379.56;5364014;26;20078;-70
2024/04/25 01:50:42;;;;;;;4.85;3.05;;;;;;;10.87;53.12;99364.97;5301038;26;20166;-70
2024/04/25 01:53:08;;;;;;;7.50;2.95;;;;;;;10.99;53.45;99377.75;5359251;26;20012;-72
2024/04/25 01:55:35;;;;;;;5.70;3.30;;;;;;;10.91;53.36;99351.03;5334193;26;20004;-71
2024/04/25 01:58:02;;;;;;;4.43;3.50;;;;;;;10.98;53.53;99366.50;5356121;26;20619;-71
2024/04/25 02:00:28;;;;;;;5.70;3.13;;;;;;;10.98;53.51;99361.28;5358502;26;20075;-71
2024/04/25 02:02:54;;;;;;;7.75;3.88;;;;;;;10.82;53.53;99324.25;5329748;26;20015;-71
2024/04/25 02:05:20;;;;;;;4.63;3.15;;;;;;;10.85;53.31;99334.63;5329325;26;20686;-69
2024/04/25 02:07:49;;;;;;;6.95;3.13;;;;;;;10.78;53.49;99319.97;5364128;26;20014;-71
2024/04/25 02:10:16;;;;;;;5.22;2.92;;;;;;;10.75;53.68;99314.81;5359044;26;20008;-72
2024/04/25 02:12:42;;;;;;;6.03;3.05;;;;;;;10.91;53.44;99340.59;5363980;26;20011;-71
2024/04/25 02:15:08;;;;;;;5.55;3.00;;;;;;;10.67;53.47;99293.31;5355416;26;20008;-69
2024/04/25 02:17:37;;;;;;;7.97;3.30;;;;;;;10.82;53.49;99321.66;5309705;26;20429;-70
2024/04/25 02:25:13;;;;;;;7.20;3.28;;;;;;;10.85;53.35;99334.63;5358341;26;20343;-70
2024/04/25 02:25:34;;;;;;;4.28;3.13;;;;;;;10.84;53.66;99309.47;5393744;26;20363;-70
2024/04/25 02:28:00;;;;;;;5.90;3.33;;;;;;;10.89;53.90;99308.53;5366544;26;22465;-70
2024/04/25 02:30:26;;;;;;;4.55;3.15;;;;;;;10.92;53.31;99304.13;5315952;26;20004;-73
2024/04/25 02:32:53;;;;;;;5.50;3.38;;;;;;;10.93;53.14;99304.97;5329351;26;19997;-68
2024/04/25 02:35:18;;;;;;;7.75;3.90;;;;;;;10.88;53.45;99312.03;5349656;26;20031;-66
2024/04/25 02:37:45;;;;;;;5.30;3.60;;;;;;;10.90;53.67;99313.69;5364136;26;20000;-70
2024/04/25 02:40:11;;;;;;;5.45;3.58;;;;;;;10.95;54.12;99316.22;5372261;26;20032;-68
2024/04/25 02:42:37;;;;;;;8.10;3.78;;;;;;;10.94;53.89;99299.75;5313308;26;20007;-68
2024/04/25 02:45:03;;;;;;;8.60;3.75;;;;;;;11.04;53.56;99321.25;5365939;26;20014;-67
2024/04/25 02:47:30;;;;;;;10.13;3.67;;;;;;;11.07;53.73;99320.34;5364617;26;20086;-68
2024/04/25 02:49:56;;;;;;;10.05;4.05;;;;;;;11.11;54.12;99320.28;5315140;26;20019;-68
2024/04/25 02:52:22;;;;;;;16.10;4.63;;;;;;;11.09;53.83;99321.16;5319792;26;20015;-68
2024/04/25 02:54:51;;;;;;;7.35;3.88;;;;;;;10.85;54.00;99287.75;5372081;26;20010;-69
2024/04/25 02:57:17;;;;;;;11.20;4.53;;;;;;;11.14;53.94;99312.38;5314316;26;20003;-68
2024/04/25 02:59:43;;;;;;;9.25;4.07;;;;;;;11.28;54.04;99303.47;5334263;26;20000;-67
2024/04/25 03:02:09;;;;;;;12.43;4.93;;;;;;;11.31;53.94;99287.78;5369579;26;20015;-69
2024/04/25 03:04:36;;;;;;;10.48;3.70;;;;;;;11.58;53.40;99311.56;5347653;26;20011;-70
2024/04/25 03:07:02;;;;;;;5.72;3.33;;;;;;;11.46;52.80;99289.22;5346012;26;20001;-69
2024/04/25 03:09:28;;;;;;;7.63;3.55;;;;;;;11.65;53.09;99320.09;5341817;26;20099;-68
2024/04/25 03:11:54;;;;;;;6.93;3.20;;;;;;;11.70;52.93;99318.22;5344356;26;20003;-70
2024/04/25 03:14:20;;;;;;;6.72;3.20;;;;;;;11.68;52.83;99296.59;5375751;26;20034;-70
2024/04/25 03:16:46;;;;;;;6.15;3.25;;;;;;;11.76;52.64;99294.66;5364162;26;20011;-71
2024/04/25 03:19:13;;;;;;;4.68;2.70;;;;;;;11.66;52.41;99293.16;5345984;26;20041;-70
2024/04/25 03:21:39;;;;;;;7.03;3.15;;;;;;;11.71;52.55;99273.91;5360332;26;20000;-71
2024/04/25 03:24:06;;;;;;;4.57;2.65;;;;;;;11.78;52.53;99271.16;5341674;26;20521;-70
2024/04/25 03:26:33;;;;;;;4.93;3.00;;;;;;;12.11;52.65;99292.16;5349280;26;20011;-71
2024/04/25 03:28:59;;;;;;;7.13;3.13;;;;;;;12.19;51.50;99298.06;5366260;26;20078;-69
2024/04/25 03:31:25;;;;;;;4.28;3.00;;;;;;;12.18;51.16;99280.72;5312319;26;20015;-71
2024/04/25 03:33:51;;;;;;;3.92;2.70;;;;;;;12.10;51.24;99256.56;5313787;26;20044;-73
2024/04/25 03:36:17;;;;;;;5.15;2.80;;;;;;;12.33;50.90;99275.13;5362259;26;20008;-72
2024/04/25 03:38:43;;;;;;;4.45;2.83;;;;;;;12.32;50.76;99269.94;5364775;26;20012;-71
2024/04/25 03:41:16;;;;;;;7.07;3.20;;;;;;;12.34;50.16;99265.56;5358680;26;20051;-72
2024/04/25 03:43:43;;;;;;;4.03;2.80;;;;;;;12.41;50.55;99261.88;5339515;26;20000;-72
2024/04/25 03:46:09;;;;;;;3.75;2.80;;;;;;;12.39;50.42;99258.44;5360266;26;20494;-73
2024/04/25 03:48:36;;;;;;;5.18;3.05;;;;;;;12.54;49.80;99270.25;5362664;26;20007;-71
2024/04/25 03:51:02;;;;;;;8.13;3.00;;;;;;;12.27;50.01;99217.88;5388901;26;20079;-72
2024/04/25 03:53:28;;;;;;;5.55;2.80;;;;;;;12.68;49.76;99245.56;5333197;26;20363;-70
2024/04/25 03:55:54;;;;;;;4.47;2.70;;;;;;;12.80;49.55;99248.69;5389486;26;20008;-71
2024/04/25 03:58:20;;;;;;;5.07;2.30;;;;;;;13.03;49.83;99255.03;5359979;26;20008;-71
2024/04/25 04:00:46;;;;;;;4.85;2.83;;;;;;;13.13;49.14;99247.78;5333893;26;20036;-70
2024/04/25 04:03:14;;;;;;;4.10;2.58;;;;;;;13.21;49.25;99226.72;5362910;26;20000;-74
2024/04/25 04:05:40;;;;;;;5.45;2.47;;;;;;;13.51;48.58;99245.00;5333703;26;20027;-71
2024/04/25 04:08:07;;;;;;;4.15;2.63;;;;;;;13.67;48.20;99237.56;5330176;26;20047;-71
2024/04/25 04:10:33;;;;;;;12.93;3.00;;;;;;;13.53;47.75;99209.22;5389682;26;20448;-71
2024/04/25 04:12:59;;;;;;;5.18;2.80;;;;;;;13.79;47.66;99249.41;5368722;26;20016;-70
2024/04/25 04:15:25;;;;;;;3.72;2.58;;;;;;;13.73;47.93;99245.22;5361929;26;20081;-71
2024/04/25 04:17:52;;;;;;;5.18;2.92;;;;;;;13.54;48.14;99203.97;5368993;26;20011;-69
2024/04/25 04:20:19;;;;;;;3.42;2.42;;;;;;;13.60;47.56;99202.94;5309781;26;20015;-69
2024/04/25 04:22:45;;;;;;;6.35;2.88;;;;;;;13.71;47.46;99185.13;5311351;26;20020;-70
2024/04/25 04:25:11;;;;;;;3.95;2.70;;;;;;;14.27;47.50;99213.88;5370000;26;20015;-69
2024/04/25 04:27:39;;;;;;;5.68;2.78;;;;;;;14.38;46.85;99189.94;5310355;26;20027;-69
2024/04/25 04:30:07;;;;;;;4.38;2.95;;;;;;;14.78;46.11;99230.50;5302971;26;20011;-71
2024/04/25 04:32:33;;;;;;;3.90;2.50;;;;;;;14.75;45.83;99210.50;5313000;26;20008;-72
2024/04/25 04:34:59;;;;;;;5.65;3.05;;;;;;;14.70;46.22;99178.38;5339476;26;20466;-68
2024/04/25 04:37:26;;;;;;;8.85;2.92;;;;;;;14.95;45.77;99213.34;5312074;26;20027;-70
2024/04/25 04:39:52;;;;;;;7.88;2.72;;;;;;;15.08;45.76;99196.25;5311243;26;20000;-69
2024/04/25 04:42:19;;;;;;;5.53;2.42;;;;;;;15.18;44.99;99196.75;5370747;26;20592;-69
2024/04/25 04:44:45;;;;;;;5.63;3.10;;;;;;;15.25;45.11;99176.41;5339003;26;20008;-70
2024/04/25 04:47:11;;;;;;;5.72;2.70;;;;;;;15.24;44.85;99174.69;5369245;26;20385;-71
2024/04/25 04:49:37;;;;;;;8.02;2.55;;;;;;;15.42;45.13;99187.13;5368667;26;20044;-69
2024/04/25 04:52:02;;;;;;;6.10;2.75;;;;;;;15.47;45.07;99155.47;5295439;26;20462;-69
2024/04/25 04:54:29;;;;;;;4.85;2.78;;;;;;;15.78;44.51;99167.34;5331735;26;20008;-71
2024/04/25 04:56:54;;;;;;;4.63;2.88;;;;;;;15.93;44.19;99168.53;5312189;26;20513;-72
2024/04/25 04:59:21;;;;;;;4.30;2.55;;;;;;;15.79;44.29;99162.06;5340473;26;20018;-69
2024/04/25 05:01:46;;;;;;;6.00;2.60;;;;;;;15.67;44.47;99115.31;5341300;26;20044;-71
2024/04/25 05:04:12;;;;;;;3.17;2.50;;;;;;;15.95;44.05;99182.44;5334718;26;19997;-71
2024/04/25 05:06:38;;;;;;;9.10;2.85;;;;;;;16.00;44.33;99162.13;5306339;26;20080;-71
2024/04/25 05:09:04;;;;;;;7.95;2.78;;;;;;;16.15;43.72;99175.50;5338164;26;20008;-70
2024/04/25 05:11:31;;;;;;;6.75;2.90;;;;;;;16.20;44.03;99139.44;5340781;26;20046;-70
2024/04/25 05:13:59;;;;;;;5.00;2.95;;;;;;;16.45;43.34;99178.59;5363167;26;20000;-71
2024/04/25 05:16:26;;;;;;;6.63;2.70;;;;;;;16.59;43.77;99177.16;5338116;26;20009;-70
2024/04/25 05:18:52;;;;;;;5.45;2.97;;;;;;;16.66;43.28;99178.63;5363788;26;20463;-69
2024/04/25 05:21:18;;;;;;;4.05;2.58;;;;;;;16.57;42.80;99148.31;5323705;26;20016;-70
2024/04/25 05:23:46;;;;;;;3.65;2.58;;;;;;;16.92;43.35;99169.56;5313199;26;20070;-72
2024/04/25 05:26:13;;;;;;;7.13;2.70;;;;;;;17.19;42.00;99157.88;5392551;26;20308;-70
2024/04/25 05:28:40;;;;;;;10.32;2.92;;;;;;;17.29;42.38;99165.25;5360573;26;20004;-71
2024/04/25 05:31:06;;;;;;;4.45;2.40;;;;;;;17.64;41.80;99182.94;5332339;26;19997;-69
2024/04/25 05:33:32;;;;;;;5.05;2.53;;;;;;;17.78;41.55;99166.47;5335594;26;20081;-80
2024/04/25 05:36:01;;;;;;;3.63;3.05;;;;;;;17.63;41.50;99160.19;5360174;26;20012;-71
2024/04/25 05:38:27;;;;;;;5.55;2.55;;;;;;;17.52;41.87;99115.16;5349731;26;20013;-70
2024/04/25 05:40:53;;;;;;;3.13;2.67;;;;;;;18.15;41.43;99166.47;5361294;26;20004;-70
2024/04/25 05:43:19;;;;;;;5.70;2.45;;;;;;;18.74;40.52;99163.47;5356949;26;20467;-71
2024/04/25 05:45:45;;;;;;;5.35;2.78;;;;;;;19.38;39.39;99147.75;5363573;26;20059;-71
2024/04/25 05:48:11;;;;;;;9.13;2.92;;;;;;;19.57;38.59;99153.69;5336054;26;20004;-71
2024/04/25 05:50:37;;;;;;;4.30;2.58;;;;;;;19.86;38.20;99163.53;5302981;26;20008;-70
2024/04/25 05:53:04;;;;;;;2.88;2.17;;;;;;;20.02;37.64;99158.22;5352547;26;20092;-70
2024/04/25 05:55:30;;;;;;;4.55;2.50;;;;;;;20.37;37.99;99122.75;5325742;26;20455;-71
2024/04/25 05:57:56;;;;;;;5.40;2.40;;;;;;;21.28;37.44;99098.66;5355093;26;20496;-74
2024/04/25 06:00:22;;;;;;;5.80;2.60;;;;;;;22.32;35.83;99112.16;5358763;26;20201;-71
2024/04/25 06:02:48;;;;;;;4.03;2.50;;;;;;;22.78;34.36;99139.94;5357637;26;20004;-73
2024/04/25 06:05:15;;;;;;;4.47;2.60;;;;;;;22.84;33.77;99135.03;5304544;26;20023;-71
2024/04/25 06:07:40;;;;;;;3.78;2.50;;;;;;;22.86;33.66;99138.44;5350430;26;20016;-72
2024/04/25 06:10:07;;;;;;;8.48;2.78;;;;;;;23.38;33.81;99143.66;5335343;26;20103;-70
2024/04/25 06:12:33;;;;;;;4.65;2.75;;;;;;;24.14;32.98;99113.34;5296739;26;20001;-71
2024/04/25 06:14:59;;;;;;;4.30;2.53;;;;;;;24.93;32.32;99132.03;5326937;26;20016;-71
2024/04/25 06:17:26;;;;;;;3.17;2.30;;;;;;;25.26;30.23;99142.75;5350637;26;21107;-71
2024/04/25 06:19:52;;;;;;;7.90;3.00;;;;;;;24.95;31.51;99142.53;5331468;26;20076;-74
2024/04/25 06:22:18;;;;;;;6.22;2.60;;;;;;;24.71;30.71;99142.69;5325669;26;20015;-72
2024/04/25 06:24:45;;;;;;;4.75;2.90;;;;;;;23.84;31.60;99112.00;5359229;26;20008;-70
2024/04/25 06:27:11;;;;;;;5.65;2.67;;;;;;;23.90;32.04;99148.75;5363741;26;20008;-70
2024/04/25 06:29:37;;;;;;;9.73;2.85;;;;;;;24.51;31.85;99153.03;5363713;26;20013;-69
2024/04/25 06:32:03;;;;;;;7.15;2.78;;;;;;;24.82;31.82;99140.03;5356640;26;20103;-69
2024/04/25 06:34:30;;;;;;;8.60;3.28;;;;;;;24.57;31.40;99125.09;5327524;26;20358;-70
2024/04/25 06:36:57;;;;;;;4.38;2.90;;;;;;;24.61;31.05;99143.34;5330338;26;20016;-69
2024/04/25 06:39:23;;;;;;;7.80;3.13;;;;;;;24.54;31.11;99139.50;5340018;26;20052;-72
2024/04/25 06:41:49;;;;;;;6.07;2.85;;;;;;;25.02;30.97;99129.63;5318042;26;20012;-71
2024/04/25 06:44:15;;;;;;;5.45;2.83;;;;;;;25.56;30.13;99162.56;5368783;26;20016;-68
2024/04/25 06:46:41;;;;;;;4.32;2.60;;;;;;;25.48;30.18;99149.88;5369709;26;20082;-69
2024/04/25 06:49:07;;;;;;;4.35;2.70;;;;;;;26.28;30.05;99157.56;5343211;26;20008;-70
2024/04/25 06:51:34;;;;;;;7.47;3.05;;;;;;;26.32;29.41;99127.00;5365696;26;20391;-69
2024/04/25 06:54:01;;;;;;;4.50;2.53;;;;;;;27.03;28.76;99110.19;5339858;26;20063;-69
2024/04/25 06:56:27;;;;;;;10.77;3.38;;;;;;;27.41;28.23;99136.28;5337626;26;20367;-69
2024/04/25 06:58:53;;;;;;;10.57;2.75;;;;;;;27.12;27.42;99115.69;5347531;26;20043;-73
2024/04/25 07:01:21;;;;;;;3.38;3.00;;;;;;;26.74;28.06;99140.28;5353602;26;20005;-70
2024/04/25 07:03:48;;;;;;;4.03;2.70;;;;;;;26.73;27.68;99111.91;5341431;26;20383;-70
2024/04/25 07:06:14;;;;;;;6.18;2.88;;;;;;;27.13;28.64;99136.06;5358984;26;20011;-73
2024/04/25 07:08:40;;;;;;;4.45;2.70;;;;;;;26.79;28.41;99126.53;5344737;26;20130;-68
2024/04/25 07:11:06;;;;;;;4.20;2.63;;;;;;;26.36;28.92;99125.78;5341764;26;20004;-70
2024/04/25 07:13:34;;;;;;;8.40;2.85;;;;;;;26.30;28.80;99136.94;5366367;26;20004;-71
2024/04/25 07:16:04;;;;;;;8.75;2.60;;;;;;;26.25;29.14;99123.16;5365810;26;20000;-69
2024/04/25 07:18:30;;;;;;;5.88;2.70;;;;;;;26.70;29.01;99112.16;5318091;26;20008;-70
2024/04/25 07:20:56;;;;;;;5.30;2.67;;;;;;;27.00;28.09;99090.94;5309087;26;20024;-71
2024/04/25 07:23:22;;;;;;;6.80;2.80;;;;;;;27.73;27.96;99133.38;5365003;26;20119;-70
2024/04/25 07:25:48;;;;;;;8.70;2.92;;;;;;;27.46;28.01;99123.38;5369832;26;20099;-71
2024/04/25 07:28:14;;;;;;;6.53;2.60;;;;;;;27.65;28.27;99138.56;5328954;26;20011;-69
2024/04/25 07:30:40;;;;;;;5.22;2.92;;;;;;;27.65;27.61;99123.41;5370682;26;20008;-70
2024/04/25 07:33:06;;;;;;;4.47;2.50;;;;;;;27.81;27.77;99143.38;5374889;26;20078;-73
2024/04/25 07:35:32;;;;;;;4.65;2.83;;;;;;;28.24;27.07;99109.19;5359375;26;20012;-71
2024/04/25 07:37:58;;;;;;;9.23;3.33;;;;;;;28.37;26.83;99101.66;5308932;26;20004;-73
2024/04/25 07:40:24;;;;;;;3.65;2.78;;;;;;;28.65;26.30;99130.28;5304532;26;20019;-70
2024/04/25 07:42:50;;;;;;;4.32;2.28;;;;;;;28.85;26.31;99115.88;5338459;26;20000;-72
2024/04/25 07:45:16;;;;;;;4.38;2.90;;;;;;;29.63;25.61;99113.72;5310102;26;20020;-71
2024/04/25 07:47:42;;;;;;;9.60;3.13;;;;;;;29.59;25.35;99117.69;5358522;26;20008;-70
2024/04/25 07:50:08;;;;;;;6.15;3.10;;;;;;;29.90;25.91;99104.72;5340674;26;20013;-71
2024/04/25 07:52:34;;;;;;;7.53;3.50;;;;;;;29.41;24.26;99128.41;5334175;26;20012;-70
2024/04/25 07:55:01;;;;;;;7.78;2.80;;;;;;;29.20;25.28;99112.59;5312060;26;20020;-71
2024/04/25 07:57:30;;;;;;;9.82;3.10;;;;;;;29.16;25.94;99114.72;5339634;26;20001;-68
2024/04/25 08:00:01;;;;;;;7.30;3.25;;;;;;;29.58;25.32;99107.97;5360389;26;20019;-72
2024/04/25 08:02:37;;;;;;;6.45;2.88;;;;;;;30.33;24.49;99091.50;5359918;26;20004;-71
2024/04/25 08:05:05;;;;;;;6.63;2.92;;;;;;;30.13;24.29;99098.91;5386426;26;20019;-71
2024/04/25 08:07:32;;;;;;;5.05;3.45;;;;;;;29.38;24.84;99078.66;5333731;26;20025;-71
2024/04/25 08:09:58;;;;;;;5.90;3.00;;;;;;;29.20;25.21;99081.28;5339689;26;20485;-71
2024/04/25 08:12:25;;;;;;;6.88;3.20;;;;;;;29.46;25.83;99086.75;5353740;26;20486;-68
2024/04/25 08:14:51;;;;;;;4.75;2.45;;;;;;;30.50;25.29;99084.34;5338006;26;20494;-72
2024/04/25 08:17:17;;;;;;;6.25;3.45;;;;;;;30.73;24.64;99086.50;5361168;26;20015;-72
2024/04/25 08:19:43;;;;;;;9.75;3.50;;;;;;;30.92;23.37;99109.56;5366729;26;20773;-72
2024/04/25 08:22:09;;;;;;;9.68;3.60;;;;;;;30.29;24.48;99122.31;5345761;26;20044;-70
2024/04/25 08:24:35;;;;;;;7.35;3.50;;;;;;;30.35;24.55;99135.06;5346651;26;20381;-77
2024/04/25 08:27:01;;;;;;;6.47;3.22;;;;;;;30.16;25.08;99087.84;5347563;26;20070;-74
2024/04/25 08:29:27;;;;;;;6.32;3.20;;;;;;;30.87;24.66;99109.22;5317227;26;20012;-76
2024/04/25 08:31:54;;;;;;;5.45;2.92;;;;;;;31.31;23.81;99099.28;5370152;26;20012;-70
2024/04/25 08:34:20;;;;;;;5.88;2.95;;;;;;;31.40;23.83;99111.75;5317658;26;20008;-81
2024/04/25 08:36:47;;;;;;;6.25;3.10;;;;;;;31.32;24.08;99101.84;5315020;26;20071;-84
2024/04/25 08:39:13;;;;;;;4.80;2.60;;;;;;;31.26;23.77;99072.94;5345353;26;20003;-82
2024/04/25 08:41:43;;;;;;;6.18;3.05;;;;;;;32.57;23.14;99068.47;5370860;26;20038;-80
2024/04/25 08:44:09;;;;;;;14.38;3.13;;;;;;;32.69;22.22;99095.00;5367408;26;20008;-86
2024/04/25 08:46:36;;;;;;;7.35;2.97;;;;;;;32.41;22.60;99114.28;5408778;26;20003;-82
2024/04/25 08:49:02;;;;;;;5.43;2.80;;;;;;;31.86;23.01;99095.16;5342923;26;20781;-78
2024/04/25 08:51:32;;;;;;;4.20;3.10;;;;;;;30.83;23.88;99066.75;5392690;26;20000;-82
2024/04/25 08:54:00;;;;;;;4.75;3.20;;;;;;;30.59;23.71;99077.22;5319271;26;20427;-80
2024/04/25 08:56:30;;;;;;;5.68;3.33;;;;;;;31.16;23.29;99081.13;5349255;26;20035;-78
2024/04/25 08:58:58;;;;;;;5.45;2.90;;;;;;;31.70;22.55;99150.59;5379930;26;20031;-83
2024/04/25 09:01:25;;;;;;;9.98;3.63;;;;;;;30.92;23.34;99128.38;5375905;26;20432;-86
2024/04/25 09:03:56;;;;;;;6.53;3.40;;;;;;;30.07;24.64;99120.13;5378544;26;20079;-82
2024/04/25 09:06:23;;;;;;;10.07;3.33;;;;;;;29.79;24.45;99133.63;5353699;26;20076;-84
2024/04/25 09:08:49;;;;;;;6.25;2.97;;;;;;;30.05;25.52;99075.56;5373784;26;20008;-86
2024/04/25 09:11:21;;;;;;;7.70;3.30;;;;;;;30.98;24.84;99096.50;5379977;26;20034;-86
2024/04/25 09:13:55;;;;;;;6.47;3.10;;;;;;;31.03;23.72;99115.63;5372532;26;20079;-85
2024/04/25 09:16:21;;;;;;;7.72;3.20;;;;;;;30.27;24.47;99113.56;5401823;26;20011;-82
2024/04/25 09:18:48;;;;;;;6.30;3.05;;;;;;;30.27;24.46;99135.03;5352592;26;20040;-86
2024/04/25 09:21:15;;;;;;;11.30;3.25;;;;;;;29.94;24.96;99099.88;5380951;26;20004;-88
2024/04/25 09:23:44;;;;;;;7.00;2.78;;;;;;;30.28;25.79;99066.97;5374805;26;20454;-81
2024/04/25 09:26:13;;;;;;;6.20;3.50;;;;;;;31.41;24.39;99075.81;5345751;26;20014;-82
2024/04/25 09:28:39;;;;;;;7.95;3.40;;;;;;;30.58;23.60;99082.75;5416738;26;20551;-88
2024/04/25 09:31:07;;;;;;;7.03;3.67;;;;;;;29.89;24.97;99107.59;5386787;26;20026;-88
2024/04/25 09:33:35;;;;;;;5.47;3.60;;;;;;;29.21;25.23;99071.44;5355174;26;20035;-85
2024/04/25 09:36:01;;;;;;;5.82;3.50;;;;;;;28.77;26.11;99086.34;5332263;26;20007;-85
2024/04/25 09:38:28;;;;;;;6.43;3.60;;;;;;;28.83;26.25;99122.38;5346515;26;20004;-88
2024/04/25 09:40:56;;;;;;;6.72;3.50;;;;;;;29.51;26.24;99106.91;5372730;26;20007;-87
2024/04/25 09:43:24;;;;;;;10.05;3.67;;;;;;;30.41;25.49;99069.22;5345650;26;20008;-83
2024/04/25 09:45:56;;;;;;;6.18;3.50;;;;;;;30.57;25.23;99084.56;5392381;26;20022;-80
2024/04/25 09:48:25;;;;;;;10.63;3.80;;;;;;;30.88;25.19;99080.53;5321770;26;20011;-82
2024/04/25 09:50:57;;;;;;;9.38;3.17;;;;;;;32.25;23.70;99101.69;5311814;26;20355;-79
2024/04/25 09:53:28;;;;;;;7.57;3.38;;;;;;;32.89;22.47;99111.63;5351026;26;19999;-83
2024/04/25 09:55:55;;;;;;;9.25;3.70;;;;;;;32.71;23.23;99092.97;5341552;26;20015;-79
2024/04/25 09:58:26;;;;;;;7.63;3.17;;;;;;;33.15;23.01;99094.31;5375133;26;20674;-79
2024/04/25 10:00:54;;;;;;;13.70;3.83;;;;;;;33.01;22.15;99082.44;5341892;26;20046;-81
2024/04/25 10:03:21;;;;;;;7.85;3.80;;;;;;;33.10;22.36;99064.38;5343378;26;20486;-81
2024/04/25 10:05:48;;;;;;;8.07;3.83;;;;;;;32.48;22.58;99087.53;5375030;26;20003;-84
2024/04/25 10:08:15;;;;;;;9.02;3.67;;;;;;;31.29;23.53;99125.47;5365542;26;20000;-82
2024/04/25 10:10:42;;;;;;;7.85;3.42;;;;;;;29.69;24.82;99106.91;5372711;26;20097;-83
2024/04/25 10:13:14;;;;;;;13.57;3.75;;;;;;;28.69;26.01;99127.16;5348189;26;20007;-81
2024/04/25 10:15:40;;;;;;;9.30;3.28;;;;;;;28.35;26.62;99108.16;5383071;26;20019;-84
2024/04/25 10:18:07;;;;;;;11.27;4.20;;;;;;;27.48;27.02;99100.03;5381566;26;20014;-87
2024/04/25 10:20:33;;;;;;;6.25;3.45;;;;;;;27.18;27.62;99102.63;5382651;26;20014;-86
2024/04/25 10:23:00;;;;;;;9.27;3.60;;;;;;;27.22;29.23;99100.56;5368236;26;20018;-82
2024/04/25 10:25:28;;;;;;;8.57;3.65;;;;;;;27.15;28.82;99112.75;5418284;26;20075;-82
2024/04/25 10:28:00;;;;;;;7.70;3.60;;;;;;;26.60;29.58;99149.47;5376877;26;20003;-86
2024/04/25 10:30:26;;;;;;;5.82;3.10;;;;;;;26.89;30.45;99153.28;5351519;26;20041;-81
2024/04/25 10:32:53;;;;;;;6.75;3.15;;;;;;;26.82;29.22;99184.13;5351022;26;20017;-89
2024/04/25 10:35:21;;;;;;;10.30;3.40;;;;;;;26.24;29.93;99174.78;5390711;26;20007;-87
2024/04/25 10:37:49;;;;;;;7.80;3.22;;;;;;;26.04;30.49;99163.97;5388826;26;20077;-85
2024/04/25 10:40:16;;;;;;;10.35;3.50;;;;;;;25.73;30.89;99142.53;5348774;26;20032;-85
2024/04/25 10:42:43;;;;;;;8.18;3.60;;;;;;;25.31;31.38;99121.06;5391813;26;20451;-87
2024/04/25 10:45:09;;;;;;;5.65;3.22;;;;;;;25.31;31.91;99150.34;5377217;26;20004;-85
2024/04/25 10:47:36;;;;;;;7.90;3.53;;;;;;;25.32;32.06;99142.25;5372267;26;20008;-71
2024/04/25 10:50:02;;;;;;;8.27;3.65;;;;;;;25.13;32.14;99137.56;5311228;26;20476;-70
2024/04/25 10:52:32;;;;;;;10.63;3.90;;;;;;;24.73;32.83;99128.28;5362392;26;20084;-71
2024/04/25 10:54:58;;;;;;;10.43;3.38;;;;;;;24.78;33.07;99146.56;5333239;26;20454;-72
2024/04/25 10:57:28;;;;;;;7.05;3.25;;;;;;;24.23;33.37;99101.97;5308185;26;20012;-71
2024/04/25 10:59:57;;;;;;;9.30;3.47;;;;;;;23.91;33.70;99142.47;5362138;26;20488;-72
2024/04/25 11:02:33;;;;;;;4.38;3.40;;;;;;;23.79;34.68;99136.25;5308535;26;20039;-69
2024/04/25 11:04:59;;;;;;;16.65;3.70;;;;;;;23.83;34.68;99142.19;5334682;26;20030;-69
2024/04/25 11:07:26;;;;;;;10.75;3.83;;;;;;;23.82;35.10;99129.84;5332981;26;20004;-73
2024/04/25 11:09:54;;;;;;;10.75;3.55;;;;;;;24.08;35.22;99153.66;5342784;26;20019;-70
2024/04/25 11:12:21;;;;;;;6.97;3.40;;;;;;;24.05;34.57;99168.88;5392789;26;20031;-70
2024/04/25 11:14:48;;;;;;;6.70;3.55;;;;;;;23.75;35.09;99146.25;5357129;26;20135;-70
2024/04/25 11:17:14;;;;;;;5.45;3.05;;;;;;;23.58;35.56;99174.06;5312223;26;20381;-68
2024/04/25 11:19:42;;;;;;;9.73;3.70;;;;;;;23.06;35.74;99128.19;5402043;26;20011;-70
2024/04/25 11:22:10;;;;;;;5.25;3.42;;;;;;;23.26;36.36;99144.56;5351553;26;20012;-70
2024/04/25 11:24:36;;;;;;;6.38;3.30;;;;;;;23.02;36.20;99126.75;5371814;26;20006;-69
2024/04/25 11:27:03;;;;;;;8.13;3.47;;;;;;;22.85;36.61;99138.56;5367179;26;20040;-70
2024/04/25 11:29:33;;;;;;;14.77;4.07;;;;;;;22.70;37.29;99151.94;5375423;26;20004;-69
2024/04/25 11:32:03;;;;;;;8.90;4.00;;;;;;;22.84;37.74;99171.34;5393355;26;20084;-69
2024/04/25 11:34:32;;;;;;;;;;;;;;;22.79;37.92;99161.06;5402788;26;20000;-69